Time;durP1;ratioP1;P1;durP2;ratioP2;P2;SDS_P1;SDS_P2;PMS_P1;PMS_P2;Temp;Humidity;BMP_temperature;BMP_pressure;BME280_temperature;BME280_humidity;BME280_pressure;Samples;Min_cycle;Max_cycle;Signal;HPM_P1;HPM_P2
2022/12/08 00:01:22;;;;;;;46.15;26.60;;;;;;;1.60;100.00;100401.16;5110019;28;20027;-74
2022/12/08 00:03:48;;;;;;;50.45;28.35;;;;;;;1.61;100.00;100398.44;5110893;28;20031;-74
2022/12/08 00:09:31;;;;;;;45.22;25.70;;;;;;;1.59;100.00;100410.91;5111490;28;20479;-74
2022/12/08 00:12:11;;;;;;;43.20;25.65;;;;;;;1.61;100.00;100409.03;5110900;28;20059;-74
2022/12/08 00:14:40;;;;;;;46.42;25.67;;;;;;;1.53;100.00;100399.78;5110844;28;20051;-74
2022/12/08 00:17:07;;;;;;;44.88;25.95;;;;;;;1.59;100.00;100416.19;5111126;28;20024;-73
2022/12/08 00:19:33;;;;;;;45.58;24.98;;;;;;;1.55;100.00;100404.03;5109255;28;20024;-73
2022/12/08 00:21:59;;;;;;;48.80;26.23;;;;;;;1.58;100.00;100413.63;5110956;28;20027;-73
2022/12/08 00:24:30;;;;;;;47.67;25.65;;;;;;;1.52;100.00;100406.00;5110685;28;20051;-73
2022/12/08 00:26:56;;;;;;;44.35;24.40;;;;;;;1.52;100.00;100406.00;5110904;28;20712;-74
2022/12/08 00:29:21;;;;;;;43.08;23.88;;;;;;;1.54;100.00;100418.19;5103154;28;20028;-73
2022/12/08 00:31:47;;;;;;;44.83;24.90;;;;;;;1.58;100.00;100422.38;5093620;28;20039;-72
2022/12/08 00:34:13;;;;;;;45.85;24.58;;;;;;;1.56;100.00;100420.75;5092001;28;20024;-69
2022/12/08 00:36:39;;;;;;;41.80;23.40;;;;;;;1.38;100.00;100388.16;5093638;28;20020;-69
2022/12/08 00:39:05;;;;;;;44.30;24.48;;;;;;;1.58;100.00;100422.38;5091997;28;20030;-69
2022/12/08 00:44:19;;;;;;;41.28;23.65;;;;;;;1.63;100.00;100432.75;5093110;28;20082;-69
2022/12/08 00:46:46;;;;;;;40.80;23.50;;;;;;;1.63;100.00;100424.81;5094129;28;20038;-69
2022/12/08 00:49:11;;;;;;;42.88;23.63;;;;;;;1.65;100.00;100428.25;5113902;28;20057;-69
2022/12/08 00:51:37;;;;;;;41.55;23.55;;;;;;;1.69;100.00;100432.44;5113524;28;20511;-68
2022/12/08 00:54:04;;;;;;;42.58;22.85;;;;;;;1.67;100.00;100431.66;5113512;28;20537;-69
2022/12/08 00:56:30;;;;;;;40.70;23.10;;;;;;;1.42;100.00;100389.72;5113189;28;20028;-69
2022/12/08 00:58:55;;;;;;;39.47;21.90;;;;;;;1.61;100.00;100419.59;5113613;28;20028;-69
2022/12/08 01:01:21;;;;;;;36.30;20.58;;;;;;;1.60;100.00;100428.47;5113705;28;20032;-69
2022/12/08 01:03:47;;;;;;;33.70;21.65;;;;;;;1.51;100.00;100413.06;5112292;28;20024;-69
2022/12/08 01:06:13;;;;;;;39.63;21.77;;;;;;;1.52;100.00;100424.50;5102567;28;20306;-69
2022/12/08 01:08:39;;;;;;;42.85;23.17;;;;;;;1.47;100.00;100418.56;5092942;28;20036;-70
2022/12/08 01:11:07;;;;;;;37.08;22.05;;;;;;;1.23;100.00;100388.91;5092714;28;20028;-69
2022/12/08 01:13:33;;;;;;;40.60;23.08;;;;;;;1.23;100.00;100391.56;5092736;28;20034;-69
2022/12/08 01:15:59;;;;;;;43.28;23.52;;;;;;;1.26;100.00;100401.97;5092556;28;20035;-69
2022/12/08 01:18:26;;;;;;;36.83;21.77;;;;;;;1.30;100.00;100411.50;5091563;28;20456;-69
2022/12/08 01:20:51;;;;;;;42.85;21.75;;;;;;;1.16;100.00;100402.53;5091603;28;20157;-69
2022/12/08 01:23:17;;;;;;;45.17;24.63;;;;;;;1.18;100.00;100401.50;5091899;28;20106;-69
2022/12/08 01:25:42;;;;;;;43.83;24.23;;;;;;;1.25;100.00;100416.13;5091426;28;20032;-69
2022/12/08 01:28:07;;;;;;;43.25;23.65;;;;;;;1.24;100.00;100413.56;5089887;28;20570;-69
2022/12/08 01:30:33;;;;;;;42.50;22.80;;;;;;;1.17;100.00;100402.44;5091306;28;20032;-68
2022/12/08 01:32:59;;;;;;;45.15;24.38;;;;;;;1.06;100.00;100388.88;5090953;28;20032;-69
2022/12/08 01:35:24;;;;;;;44.85;24.92;;;;;;;1.18;100.00;100411.19;5091825;28;20031;-69
2022/12/08 01:37:50;;;;;;;42.50;25.52;;;;;;;1.02;100.00;100392.59;5090326;28;20035;-68
2022/12/08 01:40:16;;;;;;;46.40;25.65;;;;;;;1.17;100.00;100410.38;5088474;28;20075;-69
2022/12/08 01:42:41;;;;;;;44.58;26.13;;;;;;;1.05;100.00;100395.09;5090594;28;20036;-69
2022/12/08 01:45:21;;;;;;;45.72;25.52;;;;;;;1.13;100.00;100407.94;5098980;28;20054;-69
2022/12/08 01:47:50;;;;;;;49.60;24.77;;;;;;;1.00;100.00;100393.63;5098646;28;20028;-69
2022/12/08 01:50:17;;;;;;;43.90;24.30;;;;;;;0.96;100.00;100384.09;5091826;28;20502;-69
2022/12/08 01:52:52;;;;;;;45.30;25.02;;;;;;;1.03;100.00;100396.94;5092272;28;20028;-69
2022/12/08 01:55:27;;;;;;;46.92;24.73;;;;;;;0.84;100.00;100366.25;5071227;28;20029;-69
2022/12/08 01:57:59;;;;;;;45.70;25.33;;;;;;;0.96;100.00;100390.25;5071177;28;20052;-69
2022/12/08 02:00:25;;;;;;;48.15;25.60;;;;;;;0.98;100.00;100385.78;5071107;28;20103;-68
2022/12/08 02:03:01;;;;;;;41.22;24.17;;;;;;;0.94;100.00;100381.56;5071240;28;20059;-69
2022/12/08 02:05:30;;;;;;;46.53;25.77;;;;;;;0.94;100.00;100380.72;5076912;28;20027;-69
2022/12/08 02:07:56;;;;;;;47.92;25.38;;;;;;;0.77;100.00;100348.97;5089919;28;20372;-69
2022/12/08 02:10:26;;;;;;;52.35;27.98;;;;;;;0.91;100.00;100373.78;5091086;28;20024;-69
2022/12/08 02:12:54;;;;;;;48.28;25.83;;;;;;;0.86;100.00;100369.63;5091219;28;20020;-69
2022/12/08 02:15:30;;;;;;;48.20;27.05;;;;;;;0.92;100.00;100380.78;5089693;28;20024;-70
2022/12/08 02:18:18;;;;;;;49.45;27.98;;;;;;;0.92;100.00;100377.28;5090955;28;20026;-70
2022/12/08 02:21:17;;;;;;;47.85;28.48;;;;;;;0.89;100.00;100373.00;5091225;28;20032;-68
2022/12/08 02:24:16;;;;;;;47.47;26.58;;;;;;;0.90;100.00;100374.69;5091070;28;20118;-69
2022/12/08 02:26:56;;;;;;;51.83;30.08;;;;;;;0.89;100.00;100367.72;5102580;28;20032;-69
2022/12/08 02:30:00;;;;;;;51.45;28.60;;;;;;;0.92;100.00;100372.84;5111239;28;20058;-69
2022/12/08 02:32:55;;;;;;;56.08;29.58;;;;;;;0.90;100.00;100372.06;5110675;28;20097;-69
2022/12/08 02:35:43;;;;;;;55.85;29.13;;;;;;;0.90;100.00;100366.78;5102674;28;20150;-69
2022/12/08 02:38:33;;;;;;;60.22;31.67;;;;;;;0.89;100.00;100370.38;5099389;27;20036;-68
2022/12/08 02:41:11;;;;;;;65.82;32.35;;;;;;;0.80;100.00;100351.47;5070315;28;20044;-70
2022/12/08 02:44:05;;;;;;;69.70;33.53;;;;;;;0.87;100.00;100358.19;5089600;28;20430;-70
2022/12/08 02:46:39;;;;;;;73.30;34.50;;;;;;;0.87;100.00;100360.81;5090872;28;20052;-70
2022/12/08 02:49:05;;;;;;;69.57;34.75;;;;;;;0.65;100.00;100323.16;5088993;28;20040;-70
2022/12/08 02:51:31;;;;;;;69.05;35.65;;;;;;;0.85;100.00;100352.09;5090121;28;20035;-70
2022/12/08 02:53:57;;;;;;;65.57;34.15;;;;;;;0.76;100.00;100340.19;5090488;28;20020;-70
2022/12/08 02:56:58;;;;;;;67.15;34.05;;;;;;;0.90;100.00;100365.94;5090360;28;20032;-69
2022/12/08 02:59:32;;;;;;;66.40;35.10;;;;;;;0.92;100.00;100359.66;5088763;28;20078;-69
2022/12/08 03:02:09;;;;;;;68.93;36.95;;;;;;;0.96;100.00;100358.56;5095863;28;20047;-69
2022/12/08 03:04:48;;;;;;;58.63;31.75;;;;;;;1.02;100.00;100367.97;5099613;28;20038;-69
2022/12/08 03:07:41;;;;;;;62.22;31.60;;;;;;;0.98;100.00;100348.81;5090086;28;20058;-68
2022/12/08 03:10:41;;;;;;;56.13;30.08;;;;;;;1.13;100.00;100363.88;5088695;28;20476;-68
2022/12/08 03:13:13;;;;;;;55.03;27.48;;;;;;;1.13;100.00;100355.97;5090689;27;20039;-68
2022/12/08 03:15:40;;;;;;;54.25;26.92;;;;;;;1.08;100.00;100344.78;5088803;28;20131;-69
2022/12/08 03:18:10;;;;;;;54.17;27.65;;;;;;;1.28;100.00;100364.91;5089776;28;20043;-69
2022/12/08 03:20:39;;;;;;;50.03;27.48;;;;;;;1.29;100.00;100362.19;5089794;28;20038;-69
2022/12/08 03:23:09;;;;;;;51.88;28.60;;;;;;;1.25;100.00;100342.16;5089870;28;20035;-68
2022/12/08 03:25:39;;;;;;;50.72;27.42;;;;;;;1.38;100.00;100353.81;5089788;28;20202;-68
2022/12/08 03:28:05;;;;;;;48.80;27.40;;;;;;;1.38;100.00;100356.47;5089551;28;20071;-68
2022/12/08 03:30:35;;;;;;;46.53;26.17;;;;;;;1.39;100.00;100349.41;5089805;28;20110;-68
2022/12/08 03:33:06;;;;;;;52.95;29.10;;;;;;;1.40;100.00;100345.81;5089298;28;20037;-68
2022/12/08 03:35:35;;;;;;;52.13;29.38;;;;;;;1.44;100.00;100345.59;5069571;28;20093;-68
2022/12/08 03:38:06;;;;;;;55.20;31.55;;;;;;;1.36;100.00;100323.13;5069447;28;20041;-68
2022/12/08 03:40:32;;;;;;;57.00;31.10;;;;;;;1.48;100.00;100349.78;5069445;28;20033;-69
2022/12/08 03:42:57;;;;;;;61.03;32.03;;;;;;;1.43;100.00;100332.47;5069310;28;20039;-68
2022/12/08 03:45:23;;;;;;;61.22;32.13;;;;;;;1.36;100.00;100321.34;5069038;28;20044;-68
2022/12/08 03:47:48;;;;;;;52.60;29.30;;;;;;;1.40;100.00;100325.56;5078076;28;20106;-68
2022/12/08 03:50:14;;;;;;;58.08;31.48;;;;;;;1.35;100.00;100327.56;5108618;28;20027;-69
2022/12/08 03:52:39;;;;;;;60.05;33.47;;;;;;;1.45;100.00;100336.72;5091145;28;20035;-68
2022/12/08 03:55:05;;;;;;;62.65;36.10;;;;;;;1.35;100.00;100322.28;5089431;28;20043;-69
2022/12/08 03:57:30;;;;;;;68.20;37.28;;;;;;;1.44;100.00;100324.47;5088709;28;20082;-69
2022/12/08 03:59:56;;;;;;;77.53;43.67;;;;;;;1.49;100.00;100333.00;5089009;28;20051;-69
2022/12/08 04:02:21;;;;;;;72.10;39.08;;;;;;;1.50;100.00;100333.88;5088570;28;20067;-69
2022/12/08 04:04:47;;;;;;;75.95;39.40;;;;;;;1.37;100.00;100312.50;5088406;28;20127;-69
2022/12/08 04:07:12;;;;;;;71.22;36.75;;;;;;;1.47;100.00;100332.25;5090985;28;20038;-69
2022/12/08 04:09:38;;;;;;;77.75;39.70;;;;;;;1.47;100.00;100332.25;5097015;28;20093;-69
2022/12/08 04:12:03;;;;;;;84.80;40.75;;;;;;;1.48;100.00;100327.81;5087730;28;20024;-68
2022/12/08 04:14:29;;;;;;;80.50;40.40;;;;;;;1.46;100.00;100325.25;5087942;28;20028;-69
2022/12/08 04:16:54;;;;;;;88.97;43.78;;;;;;;1.46;100.00;100325.25;5087067;28;20028;-68
2022/12/08 04:19:20;;;;;;;93.85;47.22;;;;;;;1.43;100.00;100325.41;5088350;28;20054;-68
2022/12/08 04:21:45;;;;;;;95.13;47.40;;;;;;;1.29;100.00;100295.34;5088146;28;20136;-69
2022/12/08 04:24:10;;;;;;;88.78;46.50;;;;;;;1.47;100.00;100326.09;5088065;28;20051;-69
2022/12/08 04:26:36;;;;;;;88.22;45.72;;;;;;;1.42;100.00;100312.28;5088309;28;20024;-69
2022/12/08 04:29:01;;;;;;;85.32;44.20;;;;;;;1.49;100.00;100324.22;5088391;28;20064;-69
2022/12/08 04:31:27;;;;;;;91.93;45.25;;;;;;;1.40;100.00;100314.13;5086401;28;20032;-68
2022/12/08 04:33:52;;;;;;;83.05;42.08;;;;;;;1.33;100.00;100302.16;5086701;28;20040;-68
2022/12/08 04:36:17;;;;;;;81.90;43.20;;;;;;;1.50;100.00;100324.16;5087328;28;20032;-68
2022/12/08 04:38:43;;;;;;;81.10;43.00;;;;;;;1.45;100.00;100315.59;5086597;28;20452;-68
2022/12/08 04:41:09;;;;;;;85.38;43.10;;;;;;;1.51;100.00;100322.34;5087332;28;20035;-68
2022/12/08 04:43:35;;;;;;;85.13;43.95;;;;;;;1.51;100.00;100310.00;5087543;28;20431;-68
2022/12/08 04:46:00;;;;;;;89.15;44.67;;;;;;;1.53;100.00;100315.22;5086431;28;20024;-68
2022/12/08 04:48:26;;;;;;;80.68;42.83;;;;;;;1.54;100.00;100319.56;5087418;28;20038;-68
2022/12/08 04:50:51;;;;;;;84.85;43.58;;;;;;;1.60;100.00;100312.19;5085946;28;20024;-68
2022/12/08 04:53:18;;;;;;;83.75;43.97;;;;;;;1.51;100.00;100301.22;5085446;28;20027;-68
2022/12/08 04:55:44;;;;;;;74.82;40.88;;;;;;;1.63;100.00;100311.16;5087118;28;20036;-68
2022/12/08 04:58:14;;;;;;;74.53;40.35;;;;;;;1.56;100.00;100294.78;5088335;28;20400;-68
2022/12/08 05:00:40;;;;;;;65.00;32.97;;;;;;;1.57;100.00;100288.53;5088074;28;20708;-68
2022/12/08 05:03:05;;;;;;;54.35;27.35;;;;;;;1.73;100.00;100297.41;5089650;28;20032;-69
2022/12/08 05:05:31;;;;;;;44.90;23.40;;;;;;;1.73;100.00;100283.31;5088277;28;20016;-69
2022/12/08 05:07:56;;;;;;;39.97;22.33;;;;;;;1.91;100.00;100304.34;5086838;28;20024;-69
2022/12/08 05:10:22;;;;;;;37.25;21.40;;;;;;;1.93;100.00;100299.84;5088007;28;20632;-69
2022/12/08 05:12:47;;;;;;;32.70;18.73;;;;;;;2.04;100.00;100302.75;5088108;28;20089;-69
2022/12/08 05:15:13;;;;;;;29.50;17.33;;;;;;;2.14;100.00;100292.56;5091821;28;20076;-69
2022/12/08 05:17:38;;;;;;;36.78;20.75;;;;;;;2.10;100.00;100286.56;5091836;28;20016;-69
2022/12/08 05:20:05;;;;;;;46.65;26.23;;;;;;;2.11;100.00;100282.13;5091863;28;20031;-69
2022/12/08 05:22:30;;;;;;;54.17;27.92;;;;;;;2.24;100.00;100307.84;5092145;28;20055;-69
2022/12/08 05:24:56;;;;;;;48.10;28.63;;;;;;;2.15;100.00;100283.66;5092225;28;20489;-69
2022/12/08 05:27:21;;;;;;;57.55;29.77;;;;;;;2.15;100.00;100291.59;5091779;28;20046;-69
2022/12/08 05:29:47;;;;;;;52.30;29.30;;;;;;;2.24;100.00;100310.50;5091622;28;20042;-68
2022/12/08 05:32:12;;;;;;;51.22;29.98;;;;;;;2.26;100.00;100307.78;5090656;28;20032;-69
2022/12/08 05:34:38;;;;;;;53.22;30.10;;;;;;;2.24;100.00;100307.84;5092062;28;20031;-68
2022/12/08 05:37:03;;;;;;;58.90;31.17;;;;;;;2.11;100.00;100284.78;5091706;28;20241;-69
2022/12/08 05:39:29;;;;;;;58.83;33.83;;;;;;;2.01;100.00;100270.34;5082272;28;20032;-68
2022/12/08 05:41:54;;;;;;;61.53;33.05;;;;;;;2.21;100.00;100293.91;5088848;28;20031;-70
2022/12/08 05:44:19;;;;;;;58.72;33.00;;;;;;;2.17;100.00;100287.09;5091147;28;20059;-69
2022/12/08 05:46:45;;;;;;;59.90;34.50;;;;;;;2.24;100.00;100305.22;5090172;28;20020;-68
2022/12/08 05:49:10;;;;;;;60.47;33.10;;;;;;;2.22;100.00;100298.28;5091394;28;20032;-68
2022/12/08 05:51:36;;;;;;;57.05;32.40;;;;;;;2.18;100.00;100283.50;5090488;28;20028;-68
2022/12/08 05:54:01;;;;;;;55.72;31.65;;;;;;;2.17;100.00;100284.44;5091369;28;20054;-69
2022/12/08 05:56:27;;;;;;;54.28;29.20;;;;;;;2.27;100.00;100304.19;5090835;28;20036;-68
2022/12/08 05:58:52;;;;;;;44.10;25.77;;;;;;;2.13;100.00;100281.09;5094714;28;20020;-68
2022/12/08 06:01:22;;;;;;;43.80;24.35;;;;;;;2.32;100.00;100300.34;5103653;28;20038;-69
2022/12/08 06:03:48;;;;;;;38.13;21.38;;;;;;;2.38;100.00;100303.59;5090795;28;20028;-68
2022/12/08 06:06:13;;;;;;;37.13;21.77;;;;;;;2.45;100.00;100312.91;5090910;28;20038;-69
2022/12/08 06:08:39;;;;;;;41.50;20.25;;;;;;;2.48;100.00;100307.44;5089192;28;20066;-69
2022/12/08 06:11:04;;;;;;;36.35;19.17;;;;;;;2.25;100.00;100263.72;5089714;28;20074;-69
2022/12/08 06:13:30;;;;;;;33.80;20.13;;;;;;;2.50;100.00;100305.56;5090848;28;20089;-70
2022/12/08 06:15:55;;;;;;;39.63;20.02;;;;;;;2.61;100.00;100311.97;5089392;28;20047;-70
2022/12/08 06:18:20;;;;;;;34.38;19.25;;;;;;;2.55;100.00;100300.88;5090081;28;20063;-70
2022/12/08 06:20:46;;;;;;;36.03;20.33;;;;;;;2.62;100.00;100316.34;5089401;28;20369;-70
2022/12/08 06:23:12;;;;;;;39.85;21.20;;;;;;;2.73;100.00;100321.88;5090784;28;20077;-69
2022/12/08 06:25:37;;;;;;;39.65;22.30;;;;;;;2.76;100.00;100328.78;5089556;28;20429;-69
2022/12/08 06:28:05;;;;;;;36.78;21.92;;;;;;;2.71;99.63;100299.09;5090560;28;20031;-69
2022/12/08 06:30:30;;;;;;;41.90;22.90;;;;;;;2.85;99.06;100321.19;5087815;28;20469;-69
2022/12/08 06:32:56;;;;;;;41.85;23.95;;;;;;;2.89;98.76;100319.22;5089294;28;20254;-69
2022/12/08 06:35:21;;;;;;;43.67;23.00;;;;;;;2.80;98.66;100298.56;5089624;28;20427;-68
2022/12/08 06:37:46;;;;;;;45.13;25.00;;;;;;;2.95;98.44;100319.72;5091728;28;20035;-68
2022/12/08 06:40:12;;;;;;;42.40;23.75;;;;;;;2.84;98.07;100300.09;5090494;28;20032;-69
2022/12/08 06:42:43;;;;;;;39.63;22.30;;;;;;;2.87;98.06;100314.00;5090540;28;20032;-69
2022/12/08 06:45:10;;;;;;;36.15;21.48;;;;;;;3.03;97.86;100322.78;5090396;28;20498;-70
2022/12/08 06:47:36;;;;;;;37.50;22.25;;;;;;;3.02;97.39;100326.38;5105624;28;20095;-69
2022/12/08 06:50:03;;;;;;;38.20;21.48;;;;;;;3.12;97.62;100332.00;5090547;28;20287;-69
2022/12/08 06:52:29;;;;;;;35.40;22.48;;;;;;;3.00;97.10;100308.88;5090707;28;20067;-70
2022/12/08 06:54:54;;;;;;;38.90;22.70;;;;;;;3.14;97.00;100330.13;5090495;28;20591;-70
2022/12/08 06:57:20;;;;;;;37.97;23.30;;;;;;;3.22;97.06;100335.84;5090147;28;20051;-69
2022/12/08 06:59:45;;;;;;;41.20;22.70;;;;;;;3.14;96.94;100319.53;5104274;28;20019;-70
2022/12/08 07:02:11;;;;;;;37.50;22.70;;;;;;;3.16;97.08;100322.97;5095694;28;20477;-69
2022/12/08 07:04:36;;;;;;;41.90;22.65;;;;;;;3.25;97.58;100333.00;5088834;28;20023;-70
2022/12/08 07:07:02;;;;;;;39.55;22.67;;;;;;;3.15;97.91;100313.28;5090149;28;20027;-69
2022/12/08 07:09:28;;;;;;;40.30;22.40;;;;;;;3.28;98.36;100324.88;5089892;28;20161;-69
2022/12/08 07:11:53;;;;;;;43.83;25.15;;;;;;;3.31;98.22;100330.88;5088799;28;20040;-69
2022/12/08 07:14:22;;;;;;;45.13;23.77;;;;;;;3.31;98.39;100340.59;5107811;28;20387;-69
2022/12/08 07:16:47;;;;;;;41.05;23.30;;;;;;;3.34;98.55;100340.44;5110018;28;20027;-69
2022/12/08 07:19:13;;;;;;;41.55;24.10;;;;;;;3.36;98.77;100343.84;5110163;28;20030;-69
2022/12/08 07:21:39;;;;;;;41.75;24.95;;;;;;;3.36;98.79;100334.13;5108581;28;20039;-69
2022/12/08 07:24:04;;;;;;;41.95;24.00;;;;;;;3.30;98.63;100318.56;5108671;28;20035;-69
2022/12/08 07:26:30;;;;;;;41.65;24.15;;;;;;;3.41;99.13;100341.78;5110240;28;20722;-69
2022/12/08 07:28:55;;;;;;;38.92;23.00;;;;;;;3.46;99.02;100334.41;5097704;28;20020;-70
2022/12/08 07:31:23;;;;;;;41.35;22.58;;;;;;;3.47;98.84;100329.03;5088829;28;20028;-69
2022/12/08 07:33:49;;;;;;;40.25;23.92;;;;;;;3.36;98.68;100310.25;5099486;28;20031;-69
2022/12/08 07:36:15;;;;;;;43.88;24.42;;;;;;;3.38;98.56;100321.59;5073641;28;20024;-68
2022/12/08 07:38:41;;;;;;;40.05;24.42;;;;;;;3.60;98.16;100347.72;5069353;28;20051;-70
2022/12/08 07:41:19;;;;;;;39.10;22.90;;;;;;;3.53;97.75;100330.47;5070107;28;20166;-69
2022/12/08 07:43:45;;;;;;;43.92;24.95;;;;;;;3.57;97.75;100332.84;5070089;28;20097;-70
2022/12/08 07:46:12;;;;;;;38.22;22.80;;;;;;;3.64;98.21;100333.34;5069918;28;20103;-70
2022/12/08 07:48:37;;;;;;;40.20;23.80;;;;;;;3.57;98.21;100313.41;5080672;28;20016;-69
2022/12/08 07:51:04;;;;;;;40.22;24.27;;;;;;;3.70;98.37;100328.53;5110130;28;20031;-70
2022/12/08 07:53:29;;;;;;;39.22;23.30;;;;;;;3.70;98.25;100315.25;5110270;28;20036;-69
2022/12/08 07:55:55;;;;;;;38.63;23.48;;;;;;;3.57;98.20;100282.47;5110214;28;20389;-69
2022/12/08 07:58:20;;;;;;;40.38;21.95;;;;;;;3.83;97.64;100318.03;5091483;28;20020;-70
2022/12/08 08:00:46;;;;;;;37.30;22.10;;;;;;;3.78;97.33;100302.38;5090004;28;20114;-70
2022/12/08 08:03:11;;;;;;;41.30;22.45;;;;;;;3.88;96.85;100321.25;5088726;28;20040;-70
2022/12/08 08:05:37;;;;;;;41.33;23.35;;;;;;;3.78;96.73;100288.28;5088484;28;20046;-70
2022/12/08 08:08:03;;;;;;;37.00;21.73;;;;;;;3.82;96.80;100297.75;5090058;28;20415;-70
2022/12/08 08:10:29;;;;;;;40.63;22.70;;;;;;;3.98;96.48;100320.63;5105852;28;20027;-71
2022/12/08 08:12:58;;;;;;;37.63;22.05;;;;;;;3.92;96.19;100302.41;5110410;28;20035;-70
2022/12/08 08:15:24;;;;;;;37.78;21.85;;;;;;;4.00;95.94;100318.69;5109462;28;20067;-69
2022/12/08 08:17:50;;;;;;;34.75;20.52;;;;;;;4.08;95.39;100312.94;5110724;28;20023;-69
2022/12/08 08:20:16;;;;;;;40.38;22.75;;;;;;;3.95;94.77;100274.84;5110414;28;20027;-70
2022/12/08 08:22:41;;;;;;;36.50;20.70;;;;;;;4.15;94.54;100306.31;5108955;28;20522;-71
2022/12/08 08:25:07;;;;;;;36.10;21.73;;;;;;;3.88;93.84;100254.94;5110169;28;20024;-70
2022/12/08 08:27:33;;;;;;;39.92;23.17;;;;;;;4.17;94.26;100299.97;5108420;28;20055;-70
2022/12/08 08:29:58;;;;;;;41.10;22.80;;;;;;;4.15;94.01;100277.97;5100302;28;20089;-70
2022/12/08 08:32:24;;;;;;;36.63;21.63;;;;;;;4.34;92.91;100301.56;5090453;28;20043;-69
2022/12/08 08:34:50;;;;;;;39.90;22.70;;;;;;;4.20;92.60;100272.38;5089422;28;20031;-69
2022/12/08 08:37:15;;;;;;;31.88;19.50;;;;;;;4.32;92.20;100279.59;5089684;28;20039;-70
2022/12/08 08:39:41;;;;;;;37.75;20.98;;;;;;;4.37;91.85;100285.44;5091975;28;20073;-69
2022/12/08 08:42:07;;;;;;;35.63;19.65;;;;;;;4.49;91.00;100292.63;5088171;28;20460;-71
2022/12/08 08:44:32;;;;;;;31.70;18.73;;;;;;;4.51;90.45;100288.06;5085155;28;20048;-70
2022/12/08 08:46:58;;;;;;;35.17;21.08;;;;;;;4.67;88.81;100294.09;5086154;28;20035;-69
2022/12/08 08:49:23;;;;;;;36.78;20.98;;;;;;;4.68;89.06;100290.50;5092587;28;20032;-70
2022/12/08 08:51:49;;;;;;;30.92;18.30;;;;;;;4.71;88.66;100287.66;5094183;28;20032;-70
2022/12/08 08:54:14;;;;;;;34.88;20.13;;;;;;;4.72;88.54;100271.63;5093018;28;20064;-69
2022/12/08 08:56:40;;;;;;;35.28;19.85;;;;;;;4.79;86.45;100264.09;5091298;28;20084;-70
2022/12/08 08:59:06;;;;;;;30.20;18.58;;;;;;;4.95;85.59;100285.19;5091567;28;20038;-70
2022/12/08 09:01:31;;;;;;;28.65;18.45;;;;;;;4.98;85.74;100290.31;5091669;28;20024;-70
2022/12/08 09:03:57;;;;;;;32.25;18.50;;;;;;;5.02;85.32;100295.34;5090421;28;20032;-69
2022/12/08 09:06:23;;;;;;;28.48;18.10;;;;;;;5.00;85.36;100291.91;5092272;28;20032;-70
2022/12/08 09:08:49;;;;;;;32.72;19.83;;;;;;;5.03;84.94;100282.91;5092292;28;20032;-69
2022/12/08 09:11:16;;;;;;;30.38;18.77;;;;;;;5.12;84.73;100275.16;5099208;28;20043;-70
2022/12/08 09:13:42;;;;;;;31.52;18.42;;;;;;;5.17;85.14;100273.06;5092497;28;20032;-70
2022/12/08 09:16:08;;;;;;;30.92;19.40;;;;;;;5.17;84.93;100262.44;5093544;28;20030;-70
2022/12/08 09:18:33;;;;;;;32.80;19.63;;;;;;;5.23;84.25;100259.38;5092320;28;20032;-70
2022/12/08 09:21:13;;;;;;;29.20;18.10;;;;;;;5.34;83.56;100264.81;5092357;28;20038;-69
2022/12/08 09:23:39;;;;;;;34.85;19.58;;;;;;;5.53;81.94;100262.63;5092523;28;20027;-70
2022/12/08 09:26:05;;;;;;;34.70;21.67;;;;;;;5.51;81.08;100243.22;5092501;28;20494;-70
2022/12/08 09:28:31;;;;;;;39.47;25.00;;;;;;;5.58;80.76;100236.53;5092306;28;20076;-71
2022/12/08 09:30:57;;;;;;;43.40;27.10;;;;;;;5.68;79.78;100224.28;5093518;28;20078;-71
2022/12/08 09:33:22;;;;;;;43.45;27.83;;;;;;;5.79;78.57;100227.09;5092374;28;20063;-71
2022/12/08 09:35:48;;;;;;;34.58;23.23;;;;;;;5.79;78.91;100219.09;5092278;28;20075;-70
2022/12/08 09:38:13;;;;;;;29.00;19.10;;;;;;;5.63;79.13;100189.19;5092195;28;20024;-70
2022/12/08 09:40:49;;;;;;;34.22;19.52;;;;;;;5.75;79.50;100193.66;5090841;28;20072;-70
2022/12/08 09:43:46;;;;;;;30.17;18.33;;;;;;;5.85;79.10;100208.06;5091895;28;20035;-70
2022/12/08 09:46:16;;;;;;;27.00;16.88;;;;;;;5.82;78.03;100200.28;5075138;28;20126;-70
2022/12/08 09:48:47;;;;;;;27.92;18.23;;;;;;;6.01;76.79;100207.81;5092212;28;20051;-70
2022/12/08 09:51:14;;;;;;;29.17;18.33;;;;;;;6.01;76.88;100206.03;5092117;28;20047;-70
2022/12/08 09:53:50;;;;;;;26.35;17.25;;;;;;;5.89;77.66;100179.41;5091985;28;20035;-71
2022/12/08 09:56:23;;;;;;;24.98;16.77;;;;;;;6.01;76.78;100182.06;5091214;28;20028;-70
2022/12/08 09:58:56;;;;;;;26.55;16.38;;;;;;;6.03;76.61;100169.47;5090519;28;20384;-70
2022/12/08 10:01:26;;;;;;;28.77;18.67;;;;;;;6.16;75.71;100167.63;5089307;28;20092;-70
2022/12/08 10:03:54;;;;;;;30.48;17.40;;;;;;;6.14;76.59;100156.28;5090487;28;20036;-70
2022/12/08 10:06:40;;;;;;;31.08;18.27;;;;;;;6.06;76.48;100144.47;5091588;28;20031;-70
2022/12/08 10:09:26;;;;;;;31.70;17.83;;;;;;;6.25;75.79;100152.81;5091345;28;20028;-70
2022/12/08 10:12:17;;;;;;;26.90;17.25;;;;;;;6.33;75.81;100151.31;5091393;28;20557;-70
2022/12/08 10:15:10;;;;;;;28.40;18.92;;;;;;;6.35;76.16;100151.16;5090748;28;20016;-70
2022/12/08 10:17:43;;;;;;;25.73;16.02;;;;;;;6.40;74.34;100149.03;5077328;28;20369;-70
2022/12/08 10:20:14;;;;;;;23.67;15.07;;;;;;;6.65;71.53;100178.25;5091392;28;20035;-70
2022/12/08 10:22:40;;;;;;;21.13;13.13;;;;;;;6.69;71.82;100180.56;5094380;28;20027;-70
2022/12/08 10:25:19;;;;;;;20.05;13.48;;;;;;;6.80;69.52;100187.75;5090993;28;20512;-69
2022/12/08 10:27:52;;;;;;;18.70;12.40;;;;;;;6.73;69.20;100160.72;5092912;28;20470;-71
2022/12/08 10:30:21;;;;;;;20.23;12.38;;;;;;;6.90;68.17;100173.63;5089575;28;20023;-71
2022/12/08 10:32:52;;;;;;;17.92;12.05;;;;;;;6.93;68.79;100177.84;5101054;28;20039;-69
2022/12/08 10:35:20;;;;;;;20.63;12.73;;;;;;;6.98;68.66;100171.25;5106311;28;20038;-69
2022/12/08 10:38:00;;;;;;;19.25;12.90;;;;;;;7.02;69.29;100166.50;5090142;28;20047;-70
2022/12/08 10:40:33;;;;;;;19.17;12.15;;;;;;;7.06;68.62;100161.81;5090335;28;20041;-70
2022/12/08 10:42:59;;;;;;;20.30;12.60;;;;;;;7.00;68.18;100144.47;5090711;28;20212;-70
2022/12/08 10:45:32;;;;;;;18.70;11.98;;;;;;;7.17;67.59;100164.50;5093553;28;20107;-69
2022/12/08 10:48:25;;;;;;;18.90;11.67;;;;;;;7.20;66.92;100158.94;5084884;28;20092;-70
2022/12/08 10:50:51;;;;;;;21.58;12.50;;;;;;;7.21;66.73;100145.47;5070175;28;20269;-70
2022/12/08 10:53:22;;;;;;;18.92;12.10;;;;;;;7.28;66.86;100140.53;5087430;28;20080;-70
2022/12/08 10:55:51;;;;;;;16.52;11.40;;;;;;;7.31;66.00;100143.81;5091323;28;20052;-70
2022/12/08 10:58:34;;;;;;;19.65;12.05;;;;;;;7.38;65.93;100142.34;5099758;28;20111;-70
2022/12/08 11:01:06;;;;;;;19.25;12.52;;;;;;;7.41;65.80;100138.63;5088764;28;20496;-70
2022/12/08 11:03:42;;;;;;;18.52;11.23;;;;;;;7.33;65.35;100112.53;5088656;28;20036;-70
2022/12/08 11:06:16;;;;;;;18.83;11.48;;;;;;;7.47;65.21;100128.31;5089221;28;20551;-69
2022/12/08 11:08:53;;;;;;;21.35;11.55;;;;;;;7.43;65.16;100113.50;5088853;28;20060;-69
2022/12/08 11:11:21;;;;;;;20.00;11.68;;;;;;;7.49;64.50;100106.84;5088934;28;20030;-69
2022/12/08 11:13:48;;;;;;;17.05;11.10;;;;;;;7.57;64.53;100112.41;5089936;28;20027;-69
2022/12/08 11:16:16;;;;;;;17.20;11.88;;;;;;;7.52;64.49;100096.78;5091308;28;20408;-69
2022/12/08 11:18:45;;;;;;;16.52;11.50;;;;;;;7.60;64.66;100105.03;5089933;28;20377;-70
2022/12/08 11:21:17;;;;;;;19.92;11.95;;;;;;;7.52;64.41;100079.91;5089776;28;20024;-70
2022/12/08 11:23:47;;;;;;;18.30;11.80;;;;;;;7.66;64.08;100093.00;5090099;28;20055;-70
2022/12/08 11:26:28;;;;;;;17.02;11.88;;;;;;;7.66;64.69;100087.66;5088718;28;20035;-70